Time;durP1;ratioP1;P1;durP2;ratioP2;P2;SDS_P1;SDS_P2;PMS_P1;PMS_P2;Temp;Humidity;BMP_temperature;BMP_pressure;BME280_temperature;BME280_humidity;BME280_pressure;Samples;Min_cycle;Max_cycle;Signal;HPM_P1;HPM_P2
2022/10/07 00:00:41;;;;;;;7.73;2.47;;;;;;;;;;5073654;28;20196;-46
2022/10/07 00:03:08;;;;;;;7.80;2.70;;;;;;;;;;5073742;28;20749;-46
2022/10/07 00:05:34;;;;;;;9.10;3.33;;;;;;;;;;5073329;28;20211;-46
2022/10/07 00:08:00;;;;;;;4.77;2.00;;;;;;;;;;5073433;28;20227;-46
2022/10/07 00:10:26;;;;;;;7.83;2.60;;;;;;;;;;5073271;28;20251;-46
2022/10/07 00:12:52;;;;;;;5.73;2.47;;;;;;;;;;5073228;28;20282;-46
2022/10/07 00:15:18;;;;;;;7.87;2.97;;;;;;;;;;5073237;28;20195;-46
2022/10/07 00:17:45;;;;;;;5.90;2.70;;;;;;;;;;5073300;28;20203;-46
2022/10/07 00:20:12;;;;;;;6.10;2.67;;;;;;;;;;5073360;28;20227;-46
2022/10/07 00:22:38;;;;;;;7.47;2.47;;;;;;;;;;5073122;28;20273;-46
2022/10/07 00:25:04;;;;;;;7.30;2.60;;;;;;;;;;5073070;28;20681;-46
2022/10/07 00:27:30;;;;;;;5.93;2.17;;;;;;;;;;5072912;28;20274;-46
2022/10/07 00:29:56;;;;;;;9.70;2.70;;;;;;;;;;5072918;28;20625;-46
2022/10/07 00:32:22;;;;;;;8.03;2.60;;;;;;;;;;5072852;28;20200;-46
2022/10/07 00:34:49;;;;;;;3.83;2.07;;;;;;;;;;5072778;28;20594;-46
2022/10/07 00:37:15;;;;;;;6.73;2.60;;;;;;;;;;5072738;28;20207;-46
2022/10/07 00:39:41;;;;;;;9.50;2.73;;;;;;;;;;5072940;28;20200;-46
2022/10/07 00:42:09;;;;;;;6.63;2.57;;;;;;;;;;5072790;28;20253;-46
2022/10/07 00:44:40;;;;;;;6.00;2.60;;;;;;;;;;5072681;28;20199;-46
2022/10/07 00:47:10;;;;;;;8.07;3.13;;;;;;;;;;5072660;28;20598;-46
2022/10/07 00:49:39;;;;;;;5.93;2.50;;;;;;;;;;5072155;28;20267;-46
2022/10/07 00:52:07;;;;;;;3.97;2.37;;;;;;;;;;5072565;28;20199;-46
2022/10/07 00:54:33;;;;;;;7.03;2.50;;;;;;;;;;5072412;28;20619;-46
2022/10/07 00:56:59;;;;;;;8.27;3.00;;;;;;;;;;5072555;28;20219;-46
2022/10/07 00:59:25;;;;;;;5.10;2.53;;;;;;;;;;5072294;28;20657;-46
2022/10/07 01:01:51;;;;;;;8.33;2.90;;;;;;;;;;5072451;28;20203;-46
2022/10/07 01:04:19;;;;;;;6.53;2.57;;;;;;;;;;5072186;28;20203;-46
2022/10/07 01:06:45;;;;;;;5.97;3.00;;;;;;;;;;5072338;28;20587;-46
2022/10/07 01:09:13;;;;;;;6.70;2.53;;;;;;;;;;5072121;28;20262;-46
2022/10/07 01:11:42;;;;;;;9.87;2.73;;;;;;;;;;5072122;28;20676;-46
2022/10/07 01:14:10;;;;;;;7.93;3.10;;;;;;;;;;5072266;28;20221;-46
2022/10/07 01:16:39;;;;;;;9.83;2.53;;;;;;;;;;5072057;28;20235;-46
2022/10/07 01:19:10;;;;;;;5.57;2.80;;;;;;;;;;5071667;28;20207;-46
2022/10/07 01:21:39;;;;;;;8.07;2.83;;;;;;;;;;5072004;28;20203;-46
2022/10/07 01:24:09;;;;;;;7.70;2.80;;;;;;;;;;5071964;28;20199;-46
2022/10/07 01:26:50;;;;;;;7.67;3.17;;;;;;;;;;5071922;28;20780;-45
2022/10/07 01:29:20;;;;;;;6.37;2.93;;;;;;;;;;5071985;28;20627;-45
2022/10/07 01:31:49;;;;;;;5.73;2.83;;;;;;;;;;5072013;28;20570;-46
2022/10/07 01:34:16;;;;;;;7.60;2.83;;;;;;;;;;5071784;28;20200;-48
2022/10/07 01:36:43;;;;;;;7.33;2.60;;;;;;;;;;5071960;28;20195;-47
2022/10/07 01:39:12;;;;;;;8.00;2.40;;;;;;;;;;5071935;28;20280;-48
2022/10/07 01:41:38;;;;;;;9.50;2.87;;;;;;;;;;5071753;28;20526;-47
2022/10/07 01:44:05;;;;;;;9.07;3.10;;;;;;;;;;5071711;28;20720;-47
2022/10/07 01:46:36;;;;;;;6.40;2.67;;;;;;;;;;5071696;28;20670;-47
2022/10/07 01:49:02;;;;;;;6.97;2.90;;;;;;;;;;5071568;28;20247;-46
2022/10/07 01:51:30;;;;;;;8.67;2.70;;;;;;;;;;5071632;28;20234;-46
2022/10/07 01:54:02;;;;;;;5.33;2.47;;;;;;;;;;5071709;28;20211;-45
2022/10/07 01:56:42;;;;;;;9.07;2.67;;;;;;;;;;5071643;28;20191;-45
2022/10/07 01:59:25;;;;;;;6.43;2.50;;;;;;;;;;5071635;28;20191;-45
2022/10/07 02:01:57;;;;;;;8.60;2.93;;;;;;;;;;5071726;28;20199;-45
2022/10/07 02:04:31;;;;;;;6.63;2.37;;;;;;;;;;5071582;28;20199;-46
2022/10/07 02:07:00;;;;;;;7.33;2.77;;;;;;;;;;5071709;28;20276;-46
2022/10/07 02:09:32;;;;;;;8.40;2.97;;;;;;;;;;5071379;28;20215;-45
2022/10/07 02:12:04;;;;;;;7.10;2.60;;;;;;;;;;5071646;28;20229;-45
2022/10/07 02:14:35;;;;;;;8.67;2.77;;;;;;;;;;5071494;28;20195;-45
2022/10/07 02:17:06;;;;;;;7.23;2.67;;;;;;;;;;5071592;28;20214;-45
2022/10/07 02:19:34;;;;;;;6.37;4.00;;;;;;;;;;5071390;28;20204;-45
2022/10/07 02:22:01;;;;;;;8.70;2.70;;;;;;;;;;5071729;28;20203;-45
2022/10/07 02:24:29;;;;;;;6.20;2.50;;;;;;;;;;5071342;28;20199;-45
2022/10/07 02:26:56;;;;;;;5.20;2.47;;;;;;;;;;5071454;28;20214;-45
2022/10/07 02:29:24;;;;;;;5.93;2.57;;;;;;;;;;5071260;28;20212;-46
2022/10/07 02:31:51;;;;;;;9.13;2.60;;;;;;;;;;5073304;28;20203;-47
2022/10/07 02:34:21;;;;;;;4.73;1.97;;;;;;;;;;5075074;28;20283;-46
2022/10/07 02:36:50;;;;;;;6.70;2.43;;;;;;;;;;5075215;28;20203;-47
2022/10/07 02:39:16;;;;;;;4.93;2.30;;;;;;;;;;5075128;28;20278;-46
2022/10/07 02:41:45;;;;;;;6.80;2.30;;;;;;;;;;5074962;28;20299;-46
2022/10/07 02:44:14;;;;;;;4.67;2.40;;;;;;;;;;5075063;28;20225;-47
2022/10/07 02:46:43;;;;;;;7.83;2.50;;;;;;;;;;5075088;28;20199;-46
2022/10/07 02:49:10;;;;;;;6.60;2.80;;;;;;;;;;5074639;28;20258;-46
2022/10/07 02:51:39;;;;;;;9.30;2.60;;;;;;;;;;5074989;28;20199;-46
2022/10/07 02:54:05;;;;;;;6.40;2.67;;;;;;;;;;5074936;28;20210;-46
2022/10/07 02:56:33;;;;;;;4.53;2.63;;;;;;;;;;5074824;28;20249;-46
2022/10/07 02:59:00;;;;;;;3.90;2.27;;;;;;;;;;5074849;28;20234;-46
2022/10/07 03:01:30;;;;;;;4.27;2.50;;;;;;;;;;5074670;28;20196;-46
2022/10/07 03:03:56;;;;;;;5.10;2.30;;;;;;;;;;5074643;28;20677;-46
2022/10/07 03:06:23;;;;;;;7.60;2.47;;;;;;;;;;5074515;28;20666;-46
2022/10/07 03:08:51;;;;;;;5.67;2.00;;;;;;;;;;5074643;28;20247;-46
2022/10/07 03:11:17;;;;;;;5.93;2.73;;;;;;;;;;5074436;28;20215;-47
2022/10/07 03:13:44;;;;;;;5.60;2.50;;;;;;;;;;5074367;28;20273;-46
2022/10/07 03:16:10;;;;;;;7.20;2.67;;;;;;;;;;5074441;28;20221;-46
2022/10/07 03:18:36;;;;;;;8.07;2.70;;;;;;;;;;5074229;28;20648;-47
2022/10/07 03:21:03;;;;;;;4.00;2.00;;;;;;;;;;5074432;28;20200;-46
2022/10/07 03:23:29;;;;;;;4.83;2.20;;;;;;;;;;5074208;28;20200;-46
2022/10/07 03:25:57;;;;;;;8.13;2.60;;;;;;;;;;5074222;28;20199;-46
2022/10/07 03:28:24;;;;;;;5.40;2.30;;;;;;;;;;5074422;28;20203;-46
2022/10/07 03:30:50;;;;;;;5.67;2.53;;;;;;;;;;5074170;28;20230;-46
2022/10/07 03:33:17;;;;;;;4.10;2.20;;;;;;;;;;5074142;28;20199;-46
2022/10/07 03:35:43;;;;;;;5.20;2.77;;;;;;;;;;5074035;28;20278;-46
2022/10/07 03:38:09;;;;;;;5.83;2.43;;;;;;;;;;5074134;28;20199;-46
2022/10/07 03:40:35;;;;;;;5.07;2.33;;;;;;;;;;5073854;28;20191;-47
2022/10/07 03:43:03;;;;;;;4.80;2.63;;;;;;;;;;5073769;28;20223;-46
2022/10/07 03:45:29;;;;;;;8.63;2.80;;;;;;;;;;5073814;28;20196;-46
2022/10/07 03:47:55;;;;;;;7.33;2.60;;;;;;;;;;5073732;28;20673;-46
2022/10/07 03:50:21;;;;;;;8.30;3.13;;;;;;;;;;5073558;28;20562;-46
2022/10/07 03:52:47;;;;;;;9.43;2.40;;;;;;;;;;5073687;28;20282;-46
2022/10/07 03:55:13;;;;;;;5.80;2.30;;;;;;;;;;5073919;28;20231;-46
2022/10/07 03:57:49;;;;;;;4.90;2.10;;;;;;;;;;5073627;28;20241;-46
2022/10/07 04:00:16;;;;;;;5.73;2.63;;;;;;;;;;5073671;28;20236;-46
2022/10/07 04:02:42;;;;;;;6.63;2.57;;;;;;;;;;5073553;28;20203;-46
2022/10/07 04:05:09;;;;;;;5.47;2.80;;;;;;;;;;5073454;28;20253;-46
2022/10/07 04:07:35;;;;;;;7.53;2.13;;;;;;;;;;5073301;28;20225;-46
2022/10/07 04:10:01;;;;;;;7.30;2.73;;;;;;;;;;5073445;28;20788;-46
2022/10/07 04:12:31;;;;;;;9.60;2.80;;;;;;;;;;5073286;28;20701;-47
2022/10/07 04:14:57;;;;;;;7.43;2.60;;;;;;;;;;5073352;28;20279;-46
2022/10/07 04:17:25;;;;;;;9.23;2.27;;;;;;;;;;5073257;28;20196;-47
2022/10/07 04:19:51;;;;;;;4.03;2.60;;;;;;;;;;5073174;28;20230;-47
2022/10/07 04:22:17;;;;;;;6.13;2.43;;;;;;;;;;5073201;28;20215;-47
2022/10/07 04:24:43;;;;;;;4.77;2.40;;;;;;;;;;5073247;28;20231;-46
2022/10/07 04:27:09;;;;;;;4.70;2.40;;;;;;;;;;5073179;28;20199;-47
2022/10/07 04:29:35;;;;;;;5.40;2.30;;;;;;;;;;5072968;28;20225;-47
2022/10/07 04:32:01;;;;;;;3.73;2.37;;;;;;;;;;5073117;28;20217;-47
2022/10/07 04:34:29;;;;;;;7.07;2.27;;;;;;;;;;5072816;28;20619;-47
2022/10/07 04:36:55;;;;;;;8.03;2.70;;;;;;;;;;5073042;28;20196;-47
2022/10/07 04:39:21;;;;;;;8.23;2.70;;;;;;;;;;5072854;28;20195;-47
2022/10/07 04:41:47;;;;;;;6.50;2.20;;;;;;;;;;5072721;28;20310;-47
2022/10/07 04:44:13;;;;;;;6.67;2.20;;;;;;;;;;5072835;28;20199;-47
2022/10/07 04:46:39;;;;;;;3.77;2.60;;;;;;;;;;5072585;28;20196;-47
2022/10/07 04:49:05;;;;;;;4.40;2.53;;;;;;;;;;5072462;28;20237;-47
2022/10/07 04:51:33;;;;;;;5.50;2.33;;;;;;;;;;5072456;28;20227;-47
2022/10/07 04:53:59;;;;;;;6.17;2.30;;;;;;;;;;5071892;28;20207;-47
2022/10/07 04:56:27;;;;;;;8.93;2.40;;;;;;;;;;5072461;28;20207;-46
2022/10/07 04:58:53;;;;;;;6.67;2.23;;;;;;;;;;5072568;28;20799;-47
2022/10/07 05:01:19;;;;;;;5.33;2.10;;;;;;;;;;5072259;28;20735;-47
2022/10/07 05:03:45;;;;;;;5.17;2.53;;;;;;;;;;5072562;28;20200;-47
2022/10/07 05:06:11;;;;;;;4.80;2.03;;;;;;;;;;5072284;28;20199;-47
2022/10/07 05:08:42;;;;;;;11.27;4.33;;;;;;;;;;5072070;28;20269;-47
2022/10/07 05:11:08;;;;;;;14.50;8.33;;;;;;;;;;5072246;28;20353;-46
2022/10/07 05:13:37;;;;;;;10.23;3.50;;;;;;;;;;5072091;28;20199;-47
2022/10/07 05:16:03;;;;;;;6.57;3.77;;;;;;;;;;5072069;28;20192;-47
2022/10/07 05:18:29;;;;;;;6.63;2.63;;;;;;;;;;5071524;28;20223;-47
2022/10/07 05:20:55;;;;;;;5.37;2.50;;;;;;;;;;5072111;28;20569;-47
2022/10/07 05:23:24;;;;;;;5.17;2.70;;;;;;;;;;5071684;28;20195;-47
2022/10/07 05:25:57;;;;;;;5.77;2.30;;;;;;;;;;5072060;28;20199;-46
2022/10/07 05:28:23;;;;;;;5.00;2.30;;;;;;;;;;5071957;28;20204;-47
2022/10/07 05:30:49;;;;;;;5.40;2.37;;;;;;;;;;5071664;28;20235;-46
2022/10/07 05:33:16;;;;;;;5.33;2.37;;;;;;;;;;5071652;28;20272;-46
2022/10/07 05:35:45;;;;;;;9.77;2.57;;;;;;;;;;5071693;28;20199;-46
2022/10/07 05:38:12;;;;;;;7.37;2.63;;;;;;;;;;5071813;28;20286;-47
2022/10/07 05:40:38;;;;;;;4.63;2.40;;;;;;;;;;5071660;28;20195;-47
2022/10/07 05:43:05;;;;;;;6.37;2.63;;;;;;;;;;5071861;28;20200;-47
2022/10/07 05:45:31;;;;;;;7.00;3.50;;;;;;;;;;5071688;28;20617;-47
2022/10/07 05:47:57;;;;;;;6.67;3.90;;;;;;;;;;5071670;28;20203;-47
2022/10/07 05:50:24;;;;;;;6.13;2.50;;;;;;;;;;5071603;28;20306;-46
2022/10/07 05:52:50;;;;;;;9.40;2.43;;;;;;;;;;5071649;28;20666;-47
2022/10/07 05:55:17;;;;;;;5.73;2.50;;;;;;;;;;5071742;28;20195;-46
2022/10/07 05:57:43;;;;;;;6.97;2.43;;;;;;;;;;5071628;28;20207;-47
2022/10/07 06:00:11;;;;;;;6.47;2.60;;;;;;;;;;5071689;28;20195;-47
2022/10/07 06:02:37;;;;;;;4.73;2.87;;;;;;;;;;5071294;28;20294;-47
2022/10/07 06:05:04;;;;;;;4.60;2.97;;;;;;;;;;5072885;28;20242;-47
2022/10/07 06:07:30;;;;;;;9.67;2.77;;;;;;;;;;5075555;28;20261;-47
2022/10/07 06:15:26;;;;;;;6.93;2.70;;;;;;;;;;5075602;28;20726;-47
2022/10/07 06:17:52;;;;;;;7.53;2.67;;;;;;;;;;5075497;28;20487;-46
2022/10/07 06:20:18;;;;;;;8.77;2.87;;;;;;;;;;5075448;28;20608;-46
2022/10/07 06:22:44;;;;;;;7.27;2.63;;;;;;;;;;5075518;28;20220;-46
2022/10/07 06:25:10;;;;;;;9.60;2.83;;;;;;;;;;5075291;28;20657;-48
2022/10/07 06:27:36;;;;;;;8.60;3.40;;;;;;;;;;5075247;28;20736;-46
2022/10/07 06:30:03;;;;;;;6.83;2.90;;;;;;;;;;5075296;28;20630;-47
2022/10/07 06:32:31;;;;;;;5.23;2.50;;;;;;;;;;5075257;28;20545;-47
2022/10/07 06:34:57;;;;;;;8.17;2.87;;;;;;;;;;5075235;28;20211;-46
2022/10/07 06:37:23;;;;;;;4.53;2.20;;;;;;;;;;5075136;28;20199;-46
2022/10/07 06:39:49;;;;;;;4.40;2.70;;;;;;;;;;5075106;28;20218;-46
2022/10/07 06:42:16;;;;;;;7.43;2.30;;;;;;;;;;5075022;28;20223;-46
2022/10/07 06:44:42;;;;;;;5.67;2.47;;;;;;;;;;5074768;28;20203;-46
2022/10/07 06:47:08;;;;;;;5.87;2.57;;;;;;;;;;5074910;28;20214;-46
2022/10/07 06:49:35;;;;;;;6.93;2.50;;;;;;;;;;5074478;28;20652;-46
2022/10/07 06:52:01;;;;;;;6.13;2.83;;;;;;;;;;5074968;28;20268;-46
2022/10/07 06:54:27;;;;;;;5.87;2.40;;;;;;;;;;5074722;28;20546;-46
2022/10/07 06:56:53;;;;;;;6.60;2.30;;;;;;;;;;5074689;28;20560;-46
2022/10/07 06:59:19;;;;;;;5.97;2.20;;;;;;;;;;5074710;28;20211;-46
2022/10/07 07:01:45;;;;;;;9.27;2.57;;;;;;;;;;5074520;28;20614;-46
2022/10/07 07:04:11;;;;;;;7.67;2.87;;;;;;;;;;5074613;28;20219;-47
2022/10/07 07:06:39;;;;;;;4.23;2.17;;;;;;;;;;5074483;28;20654;-46
2022/10/07 07:09:05;;;;;;;8.23;3.37;;;;;;;;;;5074623;28;20223;-46
2022/10/07 07:11:39;;;;;;;10.30;2.70;;;;;;;;;;5074427;28;20326;-47
2022/10/07 07:14:06;;;;;;;5.07;2.50;;;;;;;;;;5074439;28;20256;-46
2022/10/07 07:16:32;;;;;;;5.77;2.80;;;;;;;;;;5073590;28;20286;-47
2022/10/07 07:19:00;;;;;;;8.00;2.63;;;;;;;;;;5074360;28;20588;-46
2022/10/07 07:21:30;;;;;;;6.90;2.23;;;;;;;;;;5074243;28;20285;-46
2022/10/07 07:23:57;;;;;;;7.03;2.37;;;;;;;;;;5074317;28;20257;-46
2022/10/07 07:26:24;;;;;;;4.73;2.07;;;;;;;;;;5074189;28;20195;-46
2022/10/07 07:28:50;;;;;;;6.80;2.90;;;;;;;;;;5074252;28;20204;-45
2022/10/07 07:31:16;;;;;;;6.47;2.73;;;;;;;;;;5074061;28;20227;-45
2022/10/07 07:33:42;;;;;;;8.03;2.10;;;;;;;;;;5073761;28;20253;-45
2022/10/07 07:36:11;;;;;;;6.13;2.37;;;;;;;;;;5074406;28;20203;-46
2022/10/07 07:38:38;;;;;;;9.90;2.70;;;;;;;;;;5073900;28;20274;-45
2022/10/07 07:41:06;;;;;;;7.20;2.30;;;;;;;;;;5073944;28;20283;-46
2022/10/07 07:43:32;;;;;;;8.13;2.90;;;;;;;;;;5073829;28;20269;-46
2022/10/07 07:45:58;;;;;;;7.90;2.40;;;;;;;;;;5073803;28;20658;-46
2022/10/07 07:48:24;;;;;;;6.67;2.60;;;;;;;;;;5073453;28;20239;-45
2022/10/07 07:50:50;;;;;;;7.73;2.30;;;;;;;;;;5073721;28;20220;-45
2022/10/07 07:53:16;;;;;;;4.53;2.47;;;;;;;;;;5073794;28;20211;-46
2022/10/07 07:55:51;;;;;;;7.37;2.80;;;;;;;;;;5073758;28;20213;-46
2022/10/07 07:58:18;;;;;;;8.33;2.30;;;;;;;;;;5073463;28;20187;-45
2022/10/07 08:00:45;;;;;;;9.17;2.73;;;;;;;;;;5073593;28;20210;-46
2022/10/07 08:03:11;;;;;;;7.03;3.27;;;;;;;;;;5073491;28;20696;-46
2022/10/07 08:05:37;;;;;;;5.37;2.37;;;;;;;;;;5073518;28;20195;-46
2022/10/07 08:08:03;;;;;;;6.60;2.27;;;;;;;;;;5073510;28;20211;-45
2022/10/07 08:10:29;;;;;;;6.17;2.20;;;;;;;;;;5073013;28;20226;-46
2022/10/07 08:12:55;;;;;;;5.93;2.77;;;;;;;;;;5073467;28;20431;-46
2022/10/07 08:15:23;;;;;;;5.33;2.20;;;;;;;;;;5073332;28;20199;-47
2022/10/07 08:17:49;;;;;;;10.80;3.60;;;;;;;;;;5073181;28;20249;-47
2022/10/07 08:20:15;;;;;;;7.70;2.70;;;;;;;;;;5073118;28;20210;-47
2022/10/07 08:22:44;;;;;;;7.30;2.67;;;;;;;;;;5073035;28;20203;-48
2022/10/07 08:25:10;;;;;;;10.63;3.17;;;;;;;;;;5073086;28;20203;-47
2022/10/07 08:27:36;;;;;;;11.33;3.20;;;;;;;;;;5072984;28;20265;-45
2022/10/07 08:30:02;;;;;;;8.53;3.30;;;;;;;;;;5071842;28;20682;-47
2022/10/07 08:32:30;;;;;;;5.90;2.60;;;;;;;;;;5072805;28;20195;-47
2022/10/07 08:34:56;;;;;;;4.70;2.40;;;;;;;;;;5072963;28;20199;-47
2022/10/07 08:37:22;;;;;;;5.20;2.50;;;;;;;;;;5072763;28;20566;-47
2022/10/07 08:39:48;;;;;;;8.00;2.47;;;;;;;;;;5072803;28;20191;-46
2022/10/07 08:42:21;;;;;;;8.00;2.33;;;;;;;;;;5072787;28;20199;-46
2022/10/07 08:44:48;;;;;;;8.23;2.97;;;;;;;;;;5072690;28;20200;-46
2022/10/07 08:47:16;;;;;;;11.87;4.53;;;;;;;;;;5072557;28;20199;-46
2022/10/07 08:49:52;;;;;;;4.60;2.13;;;;;;;;;;5072119;28;20270;-46
2022/10/07 08:52:25;;;;;;;8.60;2.40;;;;;;;;;;5072595;28;20207;-46
2022/10/07 08:54:52;;;;;;;10.37;3.33;;;;;;;;;;5072525;28;20654;-46
2022/10/07 08:57:21;;;;;;;7.33;2.30;;;;;;;;;;5072459;28;20245;-46
2022/10/07 08:59:49;;;;;;;6.73;2.23;;;;;;;;;;5072362;28;20200;-46
2022/10/07 09:02:21;;;;;;;8.57;2.73;;;;;;;;;;5072444;28;20196;-46
2022/10/07 09:04:53;;;;;;;5.60;2.50;;;;;;;;;;5072309;28;20206;-46
2022/10/07 09:07:25;;;;;;;8.50;2.70;;;;;;;;;;5072322;28;20220;-47
2022/10/07 09:09:53;;;;;;;9.97;3.30;;;;;;;;;;5072157;28;20561;-46
2022/10/07 09:12:21;;;;;;;7.20;2.57;;;;;;;;;;5072218;28;20199;-46
2022/10/07 09:14:50;;;;;;;8.43;3.07;;;;;;;;;;5072134;28;20223;-47
2022/10/07 09:17:18;;;;;;;8.83;2.57;;;;;;;;;;5072156;28;20610;-47
2022/10/07 09:19:46;;;;;;;10.20;2.93;;;;;;;;;;5072010;28;20293;-46
2022/10/07 09:22:18;;;;;;;5.03;2.30;;;;;;;;;;5072006;28;20749;-46
2022/10/07 09:24:45;;;;;;;6.10;2.53;;;;;;;;;;5072019;28;20226;-46
2022/10/07 09:27:13;;;;;;;8.70;2.70;;;;;;;;;;5071963;28;20253;-46
2022/10/07 09:29:39;;;;;;;14.30;3.90;;;;;;;;;;5072012;28;20287;-47
2022/10/07 09:32:05;;;;;;;8.73;3.03;;;;;;;;;;5071660;28;20539;-47
2022/10/07 09:34:31;;;;;;;6.87;2.73;;;;;;;;;;5071747;28;20199;-47
2022/10/07 09:37:10;;;;;;;8.13;2.50;;;;;;;;;;5071941;28;20263;-47
2022/10/07 09:39:38;;;;;;;5.93;2.13;;;;;;;;;;5071488;28;20227;-47
2022/10/07 09:42:05;;;;;;;6.63;2.17;;;;;;;;;;5071857;28;20667;-47
2022/10/07 09:44:32;;;;;;;5.03;2.27;;;;;;;;;;5071803;28;20198;-47
2022/10/07 09:46:58;;;;;;;9.33;2.83;;;;;;;;;;5071953;28;20205;-47
2022/10/07 09:49:29;;;;;;;8.37;2.10;;;;;;;;;;5071508;28;20238;-47
2022/10/07 09:51:59;;;;;;;6.07;2.10;;;;;;;;;;5071628;28;20333;-47
2022/10/07 09:54:26;;;;;;;9.20;2.57;;;;;;;;;;5071666;28;20202;-47
2022/10/07 09:56:58;;;;;;;6.17;2.50;;;;;;;;;;5071626;28;20205;-46
2022/10/07 09:59:25;;;;;;;5.60;2.10;;;;;;;;;;5071942;28;20207;-46
2022/10/07 10:01:52;;;;;;;10.03;2.37;;;;;;;;;;5071670;28;20203;-47
2022/10/07 10:04:19;;;;;;;5.13;2.20;;;;;;;;;;5071686;28;20205;-47
2022/10/07 10:06:47;;;;;;;6.00;2.27;;;;;;;;;;5071536;28;20223;-47
2022/10/07 10:09:13;;;;;;;8.87;2.57;;;;;;;;;;5071655;28;20213;-47
2022/10/07 10:11:39;;;;;;;8.77;2.67;;;;;;;;;;5071472;28;20334;-47
2022/10/07 10:14:26;;;;;;;7.43;2.57;;;;;;;;;;5071616;28;20195;-46
2022/10/07 10:16:52;;;;;;;7.77;2.40;;;;;;;;;;5071415;28;20302;-48
2022/10/07 10:19:22;;;;;;;6.50;2.67;;;;;;;;;;5071432;28;20719;-48
2022/10/07 10:21:50;;;;;;;7.07;2.30;;;;;;;;;;5071415;28;20645;-48
2022/10/07 10:26:24;;;;;;;6.57;2.67;;;;;;;;;;5071508;28;20204;-48
2022/10/07 10:27:05;;;;;;;8.03;2.67;;;;;;;;;;5071420;28;20203;-48
2022/10/07 10:29:37;;;;;;;8.80;2.60;;;;;;;;;;5071415;28;20672;-47
2022/10/07 10:32:22;;;;;;;4.93;1.90;;;;;;;;;;5071450;28;20227;-48
2022/10/07 10:34:51;;;;;;;9.67;2.20;;;;;;;;;;5071375;28;20282;-48
2022/10/07 10:37:20;;;;;;;8.17;2.60;;;;;;;;;;5071272;28;20680;-48
2022/10/07 10:39:51;;;;;;;9.07;2.37;;;;;;;;;;5071259;28;20208;-48
2022/10/07 10:42:21;;;;;;;5.37;2.10;;;;;;;;;;5071405;28;20245;-48
2022/10/07 10:45:01;;;;;;;6.63;2.47;;;;;;;;;;5071152;28;20199;-48
2022/10/07 10:47:32;;;;;;;7.13;1.97;;;;;;;;;;5071247;28;20250;-48
2022/10/07 10:50:04;;;;;;;8.77;2.47;;;;;;;;;;5070907;28;20231;-48
2022/10/07 10:52:35;;;;;;;10.47;2.47;;;;;;;;;;5072779;28;20211;-49
2022/10/07 10:55:16;;;;;;;8.67;2.23;;;;;;;;;;5074814;28;20199;-48
2022/10/07 10:57:48;;;;;;;9.83;2.33;;;;;;;;;;5074781;28;20589;-48
2022/10/07 11:00:17;;;;;;;8.07;2.33;;;;;;;;;;5075165;28;20202;-48
2022/10/07 11:02:49;;;;;;;8.00;2.83;;;;;;;;;;5074568;28;20188;-48
2022/10/07 11:05:16;;;;;;;7.60;2.80;;;;;;;;;;5074777;28;20230;-48
2022/10/07 11:07:45;;;;;;;4.87;2.40;;;;;;;;;;5074449;28;20229;-48
2022/10/07 11:10:17;;;;;;;13.03;2.63;;;;;;;;;;5074657;28;20219;-48
2022/10/07 11:12:45;;;;;;;9.77;2.90;;;;;;;;;;5074603;28;20211;-47
2022/10/07 11:15:15;;;;;;;7.80;2.63;;;;;;;;;;5074520;28;20548;-47
2022/10/07 11:17:43;;;;;;;11.33;2.43;;;;;;;;;;5074345;28;20215;-48
2022/10/07 11:20:14;;;;;;;9.27;2.80;;;;;;;;;;5074517;28;20199;-47
2022/10/07 11:22:42;;;;;;;7.90;2.47;;;;;;;;;;5074238;28;20198;-48
2022/10/07 11:25:13;;;;;;;7.57;2.57;;;;;;;;;;5074272;28;20245;-48
2022/10/07 11:27:41;;;;;;;6.73;2.53;;;;;;;;;;5074146;28;20219;-48
2022/10/07 11:30:15;;;;;;;7.40;2.30;;;;;;;;;;5074055;28;20200;-49
2022/10/07 11:32:44;;;;;;;8.07;2.20;;;;;;;;;;5073962;28;20597;-50
2022/10/07 11:35:20;;;;;;;8.20;2.57;;;;;;;;;;5074074;28;20341;-47
2022/10/07 11:37:50;;;;;;;6.40;2.40;;;;;;;;;;5073955;28;20199;-48
2022/10/07 11:40:18;;;;;;;8.13;2.50;;;;;;;;;;5073988;28;20395;-47
2022/10/07 11:42:47;;;;;;;8.50;2.10;;;;;;;;;;5074004;28;20202;-47
2022/10/07 11:45:17;;;;;;;8.33;2.43;;;;;;;;;;5073993;28;20195;-47
2022/10/07 11:47:47;;;;;;;8.23;2.53;;;;;;;;;;5074084;28;20203;-47
2022/10/07 11:50:16;;;;;;;9.40;2.27;;;;;;;;;;5073498;28;20236;-48
2022/10/07 11:52:44;;;;;;;10.07;2.37;;;;;;;;;;5073696;28;20200;-48
2022/10/07 11:55:11;;;;;;;5.30;1.87;;;;;;;;;;5073743;28;20203;-49
2022/10/07 11:57:38;;;;;;;5.40;2.10;;;;;;;;;;5073734;28;20705;-48
2022/10/07 12:00:07;;;;;;;7.67;2.60;;;;;;;;;;5073702;28;20266;-48
2022/10/07 12:02:37;;;;;;;6.17;2.20;;;;;;;;;;5073358;28;20195;-48
2022/10/07 12:05:07;;;;;;;7.63;2.30;;;;;;;;;;5073628;28;20259;-49
2022/10/07 12:07:38;;;;;;;4.97;2.00;;;;;;;;;;5073424;28;20226;-48
2022/10/07 12:10:22;;;;;;;6.23;2.07;;;;;;;;;;5073525;28;20289;-48
2022/10/07 12:12:50;;;;;;;11.73;2.53;;;;;;;;;;5073343;28;20201;-47
2022/10/07 12:15:33;;;;;;;7.93;2.20;;;;;;;;;;5073442;28;20203;-47
2022/10/07 12:18:18;;;;;;;8.70;2.63;;;;;;;;;;5073403;28;20198;-47
2022/10/07 12:20:46;;;;;;;8.30;2.47;;;;;;;;;;5073218;28;20198;-47
2022/10/07 12:23:31;;;;;;;7.00;2.33;;;;;;;;;;5073297;28;20223;-48
2022/10/07 12:25:58;;;;;;;8.03;2.33;;;;;;;;;;5073191;28;20217;-48
2022/10/07 12:28:27;;;;;;;9.13;2.50;;;;;;;;;;5073194;28;20199;-48
2022/10/07 12:30:54;;;;;;;8.17;1.90;;;;;;;;;;5072916;28;20249;-48
2022/10/07 12:33:25;;;;;;;10.17;2.87;;;;;;;;;;5073038;28;20199;-48
2022/10/07 12:35:52;;;;;;;5.93;2.00;;;;;;;;;;5073270;28;20283;-49
2022/10/07 12:38:23;;;;;;;7.03;2.60;;;;;;;;;;5072825;28;20566;-49
2022/10/07 12:40:59;;;;;;;8.87;2.27;;;;;;;;;;5072873;28;20191;-48
2022/10/07 12:43:32;;;;;;;8.07;2.33;;;;;;;;;;5073046;28;20218;-48
2022/10/07 12:45:59;;;;;;;7.13;2.33;;;;;;;;;;5072923;28;20203;-48
2022/10/07 12:48:27;;;;;;;8.23;2.50;;;;;;;;;;5072649;28;20296;-48
2022/10/07 12:50:55;;;;;;;6.47;2.53;;;;;;;;;;5072481;28;20250;-48
2022/10/07 12:53:23;;;;;;;9.90;2.60;;;;;;;;;;5072693;28;20203;-48
2022/10/07 12:55:51;;;;;;;9.90;2.30;;;;;;;;;;5072488;28;20195;-48
2022/10/07 13:01:21;;;;;;;7.17;2.17;;;;;;;;;;5072550;28;20222;-47
2022/10/07 13:03:58;;;;;;;9.63;2.60;;;;;;;;;;5072338;28;20313;-48
2022/10/07 13:06:47;;;;;;;7.60;2.30;;;;;;;;;;5072438;28;20195;-48
2022/10/07 13:09:30;;;;;;;7.43;2.37;;;;;;;;;;5072316;28;20229;-47
2022/10/07 13:12:05;;;;;;;8.27;2.73;;;;;;;;;;5072271;28;20279;-47
2022/10/07 13:14:34;;;;;;;7.40;2.53;;;;;;;;;;5071516;28;20673;-48
2022/10/07 13:17:04;;;;;;;7.03;2.40;;;;;;;;;;5072054;28;20202;-48
2022/10/07 13:19:33;;;;;;;7.00;2.37;;;;;;;;;;5072138;28;20194;-48
2022/10/07 13:22:02;;;;;;;8.10;2.23;;;;;;;;;;5072171;28;20211;-48
2022/10/07 13:24:30;;;;;;;8.63;2.20;;;;;;;;;;5072080;28;20673;-49
2022/10/07 13:26:56;;;;;;;6.20;2.20;;;;;;;;;;5072131;28;20210;-48
2022/10/07 13:29:23;;;;;;;6.80;2.23;;;;;;;;;;5072129;28;20214;-47
2022/10/07 13:32:01;;;;;;;7.30;1.90;;;;;;;;;;5071790;28;20230;-48
2022/10/07 13:34:28;;;;;;;5.63;1.90;;;;;;;;;;5072019;28;20199;-47
2022/10/07 13:36:54;;;;;;;7.07;2.33;;;;;;;;;;5071872;28;20226;-47
2022/10/07 13:39:21;;;;;;;6.23;2.20;;;;;;;;;;5072018;28;20203;-47
2022/10/07 13:41:54;;;;;;;7.90;2.73;;;;;;;;;;5071787;28;20225;-47
2022/10/07 13:44:21;;;;;;;6.53;2.53;;;;;;;;;;5071882;28;20576;-47
2022/10/07 13:46:52;;;;;;;8.07;2.47;;;;;;;;;;5071710;28;20202;-47
2022/10/07 13:49:24;;;;;;;4.93;1.87;;;;;;;;;;5071669;28;20572;-47
2022/10/07 13:51:50;;;;;;;8.13;2.57;;;;;;;;;;5071747;28;20330;-48
2022/10/07 13:54:19;;;;;;;7.57;2.33;;;;;;;;;;5071778;28;20571;-47
2022/10/07 13:56:46;;;;;;;8.43;2.30;;;;;;;;;;5071738;28;20232;-47
2022/10/07 13:59:17;;;;;;;6.17;1.73;;;;;;;;;;5071917;28;20210;-47
2022/10/07 14:01:44;;;;;;;9.20;2.40;;;;;;;;;;5071682;28;20200;-47
2022/10/07 14:04:17;;;;;;;9.37;2.33;;;;;;;;;;5071933;28;20278;-46
2022/10/07 14:06:47;;;;;;;8.17;2.47;;;;;;;;;;5071599;28;20228;-46
2022/10/07 14:09:17;;;;;;;10.40;2.70;;;;;;;;;;5071672;28;20313;-47
2022/10/07 14:11:44;;;;;;;7.93;2.50;;;;;;;;;;5071378;28;20236;-48
2022/10/07 14:14:17;;;;;;;8.50;2.43;;;;;;;;;;5071562;28;20241;-48
2022/10/07 14:16:44;;;;;;;6.70;2.50;;;;;;;;;;5071480;28;20209;-47
2022/10/07 14:19:13;;;;;;;7.07;2.23;;;;;;;;;;5071632;28;20248;-47
2022/10/07 14:21:40;;;;;;;6.43;2.57;;;;;;;;;;5071503;28;20194;-48
2022/10/07 14:24:08;;;;;;;7.30;2.40;;;;;;;;;;5071514;28;20299;-48
2022/10/07 14:26:42;;;;;;;5.67;2.10;;;;;;;;;;5073417;28;20251;-47
2022/10/07 14:29:21;;;;;;;9.93;2.60;;;;;;;;;;5077342;28;20201;-47
2022/10/07 14:37:27;;;;;;;8.43;2.47;;;;;;;;;;5075215;28;20199;-47
2022/10/07 14:39:53;;;;;;;7.73;2.40;;;;;;;;;;5075166;28;20195;-47
2022/10/07 14:42:22;;;;;;;7.13;2.43;;;;;;;;;;5075233;28;20201;-47
2022/10/07 14:44:49;;;;;;;7.03;2.07;;;;;;;;;;5075091;28;20207;-47
2022/10/07 14:47:19;;;;;;;5.37;2.20;;;;;;;;;;5075109;28;20249;-47
2022/10/07 14:49:45;;;;;;;5.93;2.10;;;;;;;;;;5074887;28;20235;-47
2022/10/07 14:52:13;;;;;;;6.67;2.10;;;;;;;;;;5074878;28;20706;-47
2022/10/07 14:54:39;;;;;;;9.93;2.20;;;;;;;;;;5074916;28;20208;-47
2022/10/07 14:57:05;;;;;;;6.33;2.50;;;;;;;;;;5075178;28;20594;-47
2022/10/07 14:59:31;;;;;;;11.10;2.43;;;;;;;;;;5074874;28;20201;-47
2022/10/07 15:01:59;;;;;;;6.23;2.10;;;;;;;;;;5074764;28;20188;-47
2022/10/07 15:04:25;;;;;;;10.03;2.53;;;;;;;;;;5074730;28;20212;-48